createdAt,value
2016-12-08T00:00:05.837Z,34.54
2016-12-08T00:00:46.370Z,34.35
2016-12-08T00:01:26.888Z,34.37
2016-12-08T00:02:07.419Z,34.35
2016-12-08T00:02:47.925Z,34.35
2016-12-08T00:03:28.462Z,34.35
2016-12-08T00:04:08.990Z,34.45
2016-12-08T00:04:49.500Z,34.45
2016-12-08T00:05:30.036Z,34.64
2016-12-08T00:06:10.536Z,34.45
2016-12-08T00:06:51.052Z,34.45
2016-12-08T00:07:31.563Z,34.25
2016-12-08T00:08:12.072Z,34.35
2016-12-08T00:08:52.589Z,34.64
2016-12-08T00:09:33.145Z,34.54
2016-12-08T00:10:13.680Z,34.74
2016-12-08T00:10:54.246Z,34.83
2016-12-08T00:11:34.740Z,34.54
2016-12-08T00:12:15.256Z,34.64
2016-12-08T00:12:55.768Z,34.54
2016-12-08T00:13:36.284Z,34.25
2016-12-08T00:14:16.801Z,34.27
2016-12-08T00:14:57.344Z,34.56
2016-12-08T00:15:37.963Z,34.37
2016-12-08T00:16:18.497Z,34.35
2016-12-08T00:16:59.086Z,34.64
2016-12-08T00:17:39.533Z,34.75
2016-12-08T00:18:20.070Z,34.84
2016-12-08T00:19:00.598Z,34.75
2016-12-08T00:19:41.100Z,35.14
2016-12-08T00:20:21.632Z,34.66
2016-12-08T00:21:02.132Z,34.84
2016-12-08T00:21:42.657Z,35.14
2016-12-08T00:22:23.195Z,35.04
2016-12-08T00:23:03.727Z,34.94
2016-12-08T00:23:44.275Z,35.42
2016-12-08T00:24:24.829Z,35.04
2016-12-08T00:25:05.348Z,35.14
2016-12-08T00:25:45.852Z,35.14
2016-12-08T00:26:26.365Z,35.31
2016-12-08T00:27:06.896Z,35.31
2016-12-08T00:27:47.388Z,35.22
2016-12-08T00:28:27.910Z,35.31
2016-12-08T00:29:08.454Z,35.6
2016-12-08T00:29:48.991Z,35.62
2016-12-08T00:30:29.475Z,35.6
2016-12-08T00:31:09.987Z,35.6
2016-12-08T00:31:50.522Z,35.6
2016-12-08T00:32:31.036Z,35.6
2016-12-08T00:33:11.570Z,35.7
2016-12-08T00:33:52.115Z,35.79
2016-12-08T00:34:32.624Z,35.89
2016-12-08T00:35:13.138Z,35.62
2016-12-08T00:35:53.662Z,35.62
2016-12-08T00:36:34.207Z,35.81
2016-12-08T00:37:14.724Z,35.81
2016-12-08T00:37:55.254Z,35.62
2016-12-08T00:38:35.785Z,35.81
2016-12-08T00:39:16.310Z,35.42
2016-12-08T00:39:56.832Z,35.52
2016-12-08T00:40:37.346Z,35.62
2016-12-08T00:41:17.901Z,35.71
2016-12-08T00:41:58.435Z,35.81
2016-12-08T00:42:38.959Z,35.71
2016-12-08T00:43:19.488Z,35.62
2016-12-08T00:44:00.036Z,35.71
2016-12-08T00:44:40.558Z,35.62
2016-12-08T00:45:21.094Z,35.81
2016-12-08T00:46:01.652Z,35.7
2016-12-08T00:46:42.166Z,35.62
2016-12-08T00:47:22.730Z,35.62
2016-12-08T00:48:03.286Z,35.71
2016-12-08T00:48:43.835Z,35.81
2016-12-08T00:49:24.371Z,35.52
2016-12-08T00:50:04.889Z,35.81
2016-12-08T00:50:45.414Z,35.62
2016-12-08T00:51:25.935Z,35.81
2016-12-08T00:52:06.462Z,35.52
2016-12-08T00:52:46.964Z,35.62
2016-12-08T00:53:27.496Z,35.62
2016-12-08T00:54:08.049Z,35.71
2016-12-08T00:54:48.553Z,35.33
2016-12-08T00:55:29.089Z,35.71
2016-12-08T00:56:09.614Z,35.52
2016-12-08T00:56:50.141Z,35.62
2016-12-08T00:57:30.669Z,35.52
2016-12-08T00:58:11.172Z,35.62
2016-12-08T00:58:51.680Z,35.5
2016-12-08T00:59:32.216Z,35.81
2016-12-08T01:00:12.734Z,35.42
2016-12-08T01:00:53.239Z,35.52
2016-12-08T01:01:33.760Z,35.62
2016-12-08T01:02:14.279Z,35.52
2016-12-08T01:02:54.795Z,35.71
2016-12-08T01:03:35.309Z,35.52
2016-12-08T01:04:15.841Z,35.52
2016-12-08T01:04:56.370Z,35.62
2016-12-08T01:05:36.893Z,35.33
2016-12-08T01:06:17.416Z,35.12
2016-12-08T01:06:57.962Z,35.33
2016-12-08T01:07:38.490Z,35.24
2016-12-08T01:08:19.010Z,35.31
2016-12-08T01:08:59.535Z,35.52
2016-12-08T01:09:40.056Z,35.33
2016-12-08T01:10:20.586Z,35.52
2016-12-08T01:11:01.099Z,35.62
2016-12-08T01:11:41.627Z,35.71
2016-12-08T01:12:22.162Z,35.62
2016-12-08T01:13:02.680Z,35.42
2016-12-08T01:13:43.197Z,35.42
2016-12-08T01:14:23.738Z,35.42
2016-12-08T01:15:04.251Z,35.33
2016-12-08T01:15:44.802Z,35.42
2016-12-08T01:16:25.311Z,35.79
2016-12-08T01:17:05.852Z,35.62
2016-12-08T01:17:46.405Z,35.52
2016-12-08T01:18:26.942Z,35.41
2016-12-08T01:19:07.458Z,35.33
2016-12-08T01:19:47.990Z,35.42
2016-12-08T01:20:28.532Z,35.42
2016-12-08T01:21:09.089Z,35.33
2016-12-08T01:21:49.633Z,35.52
2016-12-08T01:22:30.158Z,35.12
2016-12-08T01:23:10.688Z,35.14
2016-12-08T01:23:51.238Z,35.14
2016-12-08T01:24:31.773Z,35.24
2016-12-08T01:25:12.310Z,35.33
2016-12-08T01:25:52.841Z,35.14
2016-12-08T01:26:33.408Z,35.62
2016-12-08T01:27:13.908Z,35.52
2016-12-08T01:27:54.443Z,35.52
2016-12-08T01:28:34.960Z,35.33
2016-12-08T01:29:15.493Z,35.33
2016-12-08T01:29:55.994Z,35.33
2016-12-08T01:30:36.502Z,35.24
2016-12-08T01:31:17.054Z,35.24
2016-12-08T01:31:57.559Z,35.24
2016-12-08T01:32:38.088Z,35.42
2016-12-08T01:33:18.595Z,35.04
2016-12-08T01:33:59.155Z,35.42
2016-12-08T01:34:39.676Z,35.33
2016-12-08T01:35:20.211Z,35.33
2016-12-08T01:36:00.719Z,35.24
2016-12-08T01:36:41.232Z,35.24
2016-12-08T01:37:21.773Z,35.52
2016-12-08T01:38:02.304Z,34.94
2016-12-08T01:38:42.804Z,35.04
2016-12-08T01:39:23.324Z,35.14
2016-12-08T01:40:03.833Z,35.04
2016-12-08T01:40:44.377Z,35.14
2016-12-08T01:41:24.911Z,35.14
2016-12-08T01:42:05.428Z,35.33
2016-12-08T01:42:45.954Z,35.52
2016-12-08T01:43:26.457Z,35.14
2016-12-08T01:44:06.970Z,35.04
2016-12-08T01:44:47.507Z,35.14
2016-12-08T01:45:28.035Z,35.04
2016-12-08T01:46:08.560Z,35.52
2016-12-08T01:46:49.111Z,35.52
2016-12-08T01:47:29.642Z,35.52
2016-12-08T01:48:10.172Z,35.04
2016-12-08T01:48:50.690Z,35.33
2016-12-08T01:49:31.210Z,35.14
2016-12-08T01:50:11.739Z,35.14
2016-12-08T01:50:52.259Z,35.04
2016-12-08T01:51:32.814Z,35.04
2016-12-08T01:52:13.351Z,35.04
2016-12-08T01:52:53.879Z,35.33
2016-12-08T01:53:34.414Z,35.33
2016-12-08T01:54:14.922Z,35.14
2016-12-08T01:54:55.450Z,35.14
2016-12-08T01:55:36.001Z,35.52
2016-12-08T01:56:16.521Z,35.42
2016-12-08T01:56:57.059Z,35.52
2016-12-08T01:57:37.580Z,35.33
2016-12-08T01:58:18.113Z,35.52
2016-12-08T01:58:58.626Z,35.04
2016-12-08T01:59:39.173Z,35.04
2016-12-08T02:00:19.708Z,35.14
2016-12-08T02:01:00.229Z,35.24
2016-12-08T02:01:40.749Z,35.14
2016-12-08T02:02:21.299Z,34.66
2016-12-08T02:03:01.849Z,34.75
2016-12-08T02:03:42.380Z,34.66
2016-12-08T02:04:22.905Z,35.14
2016-12-08T02:05:03.431Z,35.33
2016-12-08T02:05:43.949Z,35.04
2016-12-08T02:06:24.507Z,35.24
2016-12-08T02:07:05.047Z,35.04
2016-12-08T02:07:45.573Z,35.04
2016-12-08T02:08:26.078Z,35.04
2016-12-08T02:09:06.602Z,35.04
2016-12-08T02:09:47.127Z,35.04
2016-12-08T02:10:27.655Z,35.14
2016-12-08T02:11:08.178Z,35.04
2016-12-08T02:11:48.704Z,35.24
2016-12-08T02:12:29.216Z,35.33
2016-12-08T02:13:09.729Z,35.04
2016-12-08T02:13:50.274Z,35.14
2016-12-08T02:14:30.800Z,34.84
2016-12-08T02:15:11.327Z,34.75
2016-12-08T02:15:51.855Z,34.75
2016-12-08T02:16:32.376Z,34.75
2016-12-08T02:17:12.882Z,34.56
2016-12-08T02:17:53.410Z,34.37
2016-12-08T02:18:33.935Z,34.66
2016-12-08T02:19:14.455Z,34.66
2016-12-08T02:19:55.011Z,34.66
2016-12-08T02:20:35.529Z,34.66
2016-12-08T02:21:16.047Z,34.66
2016-12-08T02:21:56.586Z,34.27
2016-12-08T02:22:37.113Z,34.56
2016-12-08T02:23:17.648Z,34.37
2016-12-08T02:23:58.166Z,34.37
2016-12-08T02:24:38.696Z,34.46
2016-12-08T02:25:19.240Z,34.17
2016-12-08T02:25:59.792Z,34.08
2016-12-08T02:26:40.310Z,34.56
2016-12-08T02:27:20.835Z,34.66
2016-12-08T02:28:01.349Z,34.84
2016-12-08T02:28:41.868Z,34.75
2016-12-08T02:29:22.407Z,35.33
2016-12-08T02:30:02.945Z,35.14
2016-12-08T02:30:43.517Z,35.24
2016-12-08T02:31:24.021Z,34.84
2016-12-08T02:32:04.549Z,35.04
2016-12-08T02:32:45.065Z,34.56
2016-12-08T02:33:25.605Z,34.84
2016-12-08T02:34:06.138Z,34.66
2016-12-08T02:34:46.674Z,34.56
2016-12-08T02:35:27.231Z,34.46
2016-12-08T02:36:07.733Z,34.56
2016-12-08T02:36:48.268Z,34.84
2016-12-08T02:37:28.805Z,34.75
2016-12-08T02:38:09.318Z,34.75
2016-12-08T02:38:49.855Z,35.14
2016-12-08T02:39:30.378Z,34.94
2016-12-08T02:40:10.912Z,34.56
2016-12-08T02:40:51.449Z,34.75
2016-12-08T02:41:31.983Z,34.84
2016-12-08T02:42:12.501Z,34.84
2016-12-08T02:42:53.031Z,35.24
2016-12-08T02:43:33.552Z,35.04
2016-12-08T02:44:14.108Z,34.74
2016-12-08T02:44:54.634Z,34.84
2016-12-08T02:45:35.154Z,34.75
2016-12-08T02:46:15.682Z,34.75
2016-12-08T02:46:56.208Z,34.84
2016-12-08T02:47:36.757Z,34.75
2016-12-08T02:48:17.325Z,34.75
2016-12-08T02:48:57.874Z,34.75
2016-12-08T02:49:38.389Z,34.37
2016-12-08T02:50:18.925Z,34.27
2016-12-08T02:50:59.469Z,34.46
2016-12-08T02:51:39.988Z,34.66
2016-12-08T02:52:20.508Z,34.56
2016-12-08T02:53:01.039Z,34.66
2016-12-08T02:53:41.549Z,34.66
2016-12-08T02:54:22.083Z,34.56
2016-12-08T02:55:02.602Z,34.75
2016-12-08T02:55:43.123Z,34.66
2016-12-08T02:56:23.655Z,34.56
2016-12-08T02:57:04.191Z,34.56
2016-12-08T02:57:44.721Z,34.66
2016-12-08T02:58:25.241Z,34.75
2016-12-08T02:59:05.758Z,34.56
2016-12-08T02:59:46.303Z,34.75
2016-12-08T03:00:26.806Z,34.84
2016-12-08T03:01:07.378Z,34.84
2016-12-08T03:01:47.911Z,34.75
2016-12-08T03:02:28.433Z,34.94
2016-12-08T03:03:08.955Z,34.84
2016-12-08T03:03:49.477Z,35.24
2016-12-08T03:04:29.977Z,34.84
2016-12-08T03:05:10.535Z,34.75
2016-12-08T03:05:51.065Z,34.75
2016-12-08T03:06:31.600Z,34.75
2016-12-08T03:07:12.123Z,34.75
2016-12-08T03:07:52.649Z,34.75
2016-12-08T03:08:33.159Z,34.84
2016-12-08T03:09:13.677Z,34.66
2016-12-08T03:09:54.199Z,35.14
2016-12-08T03:10:34.748Z,34.75
2016-12-08T03:11:15.267Z,34.56
2016-12-08T03:11:55.785Z,35.24
2016-12-08T03:12:36.331Z,35.33
2016-12-08T03:13:16.850Z,34.66
2016-12-08T03:13:57.370Z,34.66
2016-12-08T03:14:37.899Z,34.66
2016-12-08T03:15:18.442Z,34.84
2016-12-08T03:15:58.988Z,35.14
2016-12-08T03:16:39.545Z,34.66
2016-12-08T03:17:20.105Z,34.84
2016-12-08T03:18:00.640Z,34.75
2016-12-08T03:18:41.159Z,34.56
2016-12-08T03:19:21.686Z,34.66
2016-12-08T03:20:02.214Z,35.24
2016-12-08T03:20:42.745Z,34.75
2016-12-08T03:21:23.281Z,34.66
2016-12-08T03:22:03.810Z,34.56
2016-12-08T03:22:44.329Z,34.94
2016-12-08T03:23:24.873Z,34.46
2016-12-08T03:24:05.396Z,34.75
2016-12-08T03:24:45.958Z,34.56
2016-12-08T03:25:26.502Z,34.84
2016-12-08T03:26:07.028Z,35.14
2016-12-08T03:26:47.552Z,35.04
2016-12-08T03:27:28.080Z,35.24
2016-12-08T03:28:08.627Z,35.14
2016-12-08T03:28:49.151Z,35.42
2016-12-08T03:29:29.697Z,35.14
2016-12-08T03:30:10.230Z,35.62
2016-12-08T03:30:50.755Z,35.62
2016-12-08T03:31:31.274Z,35.14
2016-12-08T03:32:11.817Z,35.14
2016-12-08T03:32:52.353Z,34.66
2016-12-08T03:33:32.888Z,34.66
2016-12-08T03:34:13.421Z,35.14
2016-12-08T03:34:53.932Z,35.42
2016-12-08T03:35:34.446Z,35.24
2016-12-08T03:36:14.970Z,35.04
2016-12-08T03:36:55.485Z,35.14
2016-12-08T03:37:36.024Z,34.66
2016-12-08T03:38:16.527Z,34.94
2016-12-08T03:38:57.042Z,34.75
2016-12-08T03:39:37.561Z,34.66
2016-12-08T03:40:18.092Z,35.04
2016-12-08T03:40:58.605Z,34.37
2016-12-08T03:41:39.125Z,34.46
2016-12-08T03:42:19.656Z,34.37
2016-12-08T03:43:00.185Z,34.37
2016-12-08T03:43:40.688Z,34.46
2016-12-08T03:44:21.220Z,34.27
2016-12-08T03:45:01.769Z,34.37
2016-12-08T03:45:42.306Z,34.56
2016-12-08T03:46:22.853Z,34.37
2016-12-08T03:47:03.391Z,34.56
2016-12-08T03:47:43.927Z,34.66
2016-12-08T03:48:24.455Z,34.66
2016-12-08T03:49:04.983Z,34.66
2016-12-08T03:49:45.489Z,34.37
2016-12-08T03:50:25.996Z,34.46
2016-12-08T03:51:06.525Z,34.46
2016-12-08T03:51:47.051Z,34.56
2016-12-08T03:52:27.601Z,34.66
2016-12-08T03:53:08.154Z,34.56
2016-12-08T03:53:48.713Z,34.37
2016-12-08T03:54:29.242Z,34.56
2016-12-08T03:55:09.774Z,34.37
2016-12-08T03:55:50.294Z,34.27
2016-12-08T03:56:30.823Z,34.56
2016-12-08T03:57:11.366Z,34.75
2016-12-08T03:57:51.911Z,34.66
2016-12-08T03:58:32.428Z,34.75
2016-12-08T03:59:12.951Z,34.94
2016-12-08T03:59:53.460Z,35.04
2016-12-08T04:00:34.000Z,35.14
2016-12-08T04:01:14.536Z,34.56
2016-12-08T04:01:55.074Z,34.37
2016-12-08T04:02:35.603Z,34.46
2016-12-08T04:03:16.131Z,34.75
2016-12-08T04:03:56.658Z,34.46
2016-12-08T04:04:37.197Z,34.66
2016-12-08T04:05:17.719Z,34.37
2016-12-08T04:05:58.250Z,34.46
2016-12-08T04:06:38.781Z,34.27
2016-12-08T04:07:19.326Z,34.66
2016-12-08T04:07:59.869Z,34.56
2016-12-08T04:08:40.407Z,34.56
2016-12-08T04:09:20.949Z,34.75
2016-12-08T04:10:01.493Z,34.56
2016-12-08T04:10:42.027Z,34.56
2016-12-08T04:11:22.564Z,34.27
2016-12-08T04:12:03.082Z,34.17
2016-12-08T04:12:43.631Z,33.98
2016-12-08T04:13:24.180Z,34.27
2016-12-08T04:14:04.734Z,34.46
2016-12-08T04:14:45.287Z,34.56
2016-12-08T04:15:25.818Z,34.17
2016-12-08T04:16:06.401Z,34.66
2016-12-08T04:16:46.951Z,34.56
2016-12-08T04:17:27.480Z,34.37
2016-12-08T04:18:08.019Z,34.37
2016-12-08T04:18:48.578Z,34.56
2016-12-08T04:19:29.164Z,34.56
2016-12-08T04:20:09.694Z,34.66
2016-12-08T04:20:50.224Z,34.66
2016-12-08T04:21:30.766Z,34.56
2016-12-08T04:22:11.316Z,34.37
2016-12-08T04:22:51.836Z,34.46
2016-12-08T04:23:32.376Z,34.27
2016-12-08T04:24:12.913Z,34.66
2016-12-08T04:24:53.444Z,34.56
2016-12-08T04:25:33.997Z,34.46
2016-12-08T04:26:14.541Z,34.37
2016-12-08T04:26:55.079Z,34.46
2016-12-08T04:27:35.601Z,34.17
2016-12-08T04:28:16.108Z,34.37
2016-12-08T04:28:56.637Z,34.37
2016-12-08T04:29:37.193Z,34.37
2016-12-08T04:30:17.747Z,34.37
2016-12-08T04:30:58.284Z,34.37
2016-12-08T04:31:38.805Z,34.37
2016-12-08T04:32:19.345Z,34.46
2016-12-08T04:32:59.890Z,34.56
2016-12-08T04:33:40.433Z,34.66
2016-12-08T04:34:20.964Z,34.37
2016-12-08T04:35:01.483Z,34.46
2016-12-08T04:35:42.037Z,34.46
2016-12-08T04:36:22.610Z,34.37
2016-12-08T04:37:03.142Z,34.08
2016-12-08T04:37:43.661Z,34.37
2016-12-08T04:38:24.169Z,34.56
2016-12-08T04:39:04.713Z,34.27
2016-12-08T04:39:45.245Z,34.37
2016-12-08T04:40:25.786Z,34.37
2016-12-08T04:41:06.296Z,34.08
2016-12-08T04:41:46.817Z,34.46
2016-12-08T04:42:27.363Z,34.56
2016-12-08T04:43:07.891Z,34.17
2016-12-08T04:43:48.444Z,34.37
2016-12-08T04:44:28.970Z,34.08
2016-12-08T04:45:09.545Z,34.08
2016-12-08T04:45:50.057Z,34.17
2016-12-08T04:46:30.593Z,34.37
2016-12-08T04:47:11.124Z,34.37
2016-12-08T04:47:51.690Z,34.37
2016-12-08T04:48:32.220Z,34.27
2016-12-08T04:49:12.766Z,34.17
2016-12-08T04:49:53.322Z,34.08
2016-12-08T04:50:33.857Z,34.37
2016-12-08T04:51:14.371Z,34.37
2016-12-08T04:51:54.890Z,34.27
2016-12-08T04:52:35.411Z,34.17
2016-12-08T04:53:15.921Z,34.27
2016-12-08T04:53:56.443Z,33.89
2016-12-08T04:54:36.970Z,34.08
2016-12-08T04:55:17.514Z,34.17
2016-12-08T04:55:58.048Z,34.46
2016-12-08T04:56:38.573Z,34.37
2016-12-08T04:57:19.114Z,34.37
2016-12-08T04:57:59.624Z,34.27
2016-12-08T04:58:40.146Z,34.37
2016-12-08T04:59:20.667Z,34.08
2016-12-08T05:00:01.203Z,34.37
2016-12-08T05:00:41.724Z,34.27
2016-12-08T05:01:22.264Z,34.46
2016-12-08T05:02:02.801Z,34.37
2016-12-08T05:02:43.339Z,33.98
2016-12-08T05:03:23.874Z,34.17
2016-12-08T05:04:04.381Z,34.08
2016-12-08T05:04:44.905Z,34.17
2016-12-08T05:05:25.428Z,34.17
2016-12-08T05:06:05.924Z,34.37
2016-12-08T05:06:46.437Z,34.56
2016-12-08T05:07:26.959Z,33.98
2016-12-08T05:08:07.457Z,34.27
2016-12-08T05:08:48.005Z,34.37
2016-12-08T05:09:28.531Z,33.98
2016-12-08T05:10:09.038Z,33.79
2016-12-08T05:10:49.558Z,33.89
2016-12-08T05:11:30.087Z,33.79
2016-12-08T05:12:10.608Z,33.5
2016-12-08T05:12:51.112Z,33.79
2016-12-08T05:13:31.632Z,33.69
2016-12-08T05:14:12.149Z,33.79
2016-12-08T05:14:52.655Z,33.59
2016-12-08T05:15:33.169Z,33.89
2016-12-08T05:16:13.704Z,34.08
2016-12-08T05:16:54.222Z,33.89
2016-12-08T05:17:34.757Z,33.89
2016-12-08T05:18:15.286Z,33.79
2016-12-08T05:18:55.818Z,33.89
2016-12-08T05:19:36.337Z,33.89
2016-12-08T05:20:16.866Z,33.98
2016-12-08T05:20:57.417Z,33.98
2016-12-08T05:21:37.930Z,33.79
2016-12-08T05:22:18.451Z,33.79
2016-12-08T05:22:58.957Z,34.27
2016-12-08T05:23:39.470Z,34.27
2016-12-08T05:24:19.990Z,33.79
2016-12-08T05:25:00.509Z,34.17
2016-12-08T05:25:41.021Z,34.56
2016-12-08T05:26:21.546Z,34.46
2016-12-08T05:27:02.073Z,34.08
2016-12-08T05:27:42.581Z,34.37
2016-12-08T05:28:23.086Z,34.38
2016-12-08T05:29:03.603Z,34.38
2016-12-08T05:29:44.110Z,34.17
2016-12-08T05:30:24.623Z,34.46
2016-12-08T05:31:05.132Z,34.37
2016-12-08T05:31:45.642Z,34.37
2016-12-08T05:32:26.140Z,34.17
2016-12-08T05:33:06.664Z,34.46
2016-12-08T05:33:47.161Z,34.37
2016-12-08T05:34:27.664Z,34
2016-12-08T05:35:08.206Z,34.09
2016-12-08T05:35:48.712Z,34.17
2016-12-08T05:36:29.248Z,34
2016-12-08T05:37:09.781Z,34.37
2016-12-08T05:37:50.294Z,34.37
2016-12-08T05:38:30.812Z,34.27
2016-12-08T05:39:11.333Z,34.37
2016-12-08T05:39:51.872Z,34.56
2016-12-08T05:40:32.378Z,34.27
2016-12-08T05:41:12.917Z,34.66
2016-12-08T05:41:53.448Z,34.46
2016-12-08T05:42:33.976Z,34.56
2016-12-08T05:43:14.506Z,34.27
2016-12-08T05:43:55.034Z,34.27
2016-12-08T05:44:35.580Z,34.75
2016-12-08T05:45:16.149Z,34.66
2016-12-08T05:45:56.674Z,35.33
2016-12-08T05:46:37.212Z,35.33
2016-12-08T05:47:17.738Z,34.75
2016-12-08T05:47:58.271Z,34.66
2016-12-08T05:48:38.820Z,35.24
2016-12-08T05:49:19.371Z,35.14
2016-12-08T05:49:59.906Z,35.14
2016-12-08T05:50:40.428Z,34.46
2016-12-08T05:51:20.934Z,34.27
2016-12-08T05:52:01.444Z,34.46
2016-12-08T05:52:41.970Z,34.46
2016-12-08T05:53:22.496Z,34.46
2016-12-08T05:54:03.008Z,34.27
2016-12-08T05:54:43.536Z,34.27
2016-12-08T05:55:24.068Z,34.08
2016-12-08T05:56:04.577Z,34.08
2016-12-08T05:56:45.104Z,34.08
2016-12-08T05:57:25.617Z,34.27
2016-12-08T05:58:06.150Z,34.37
2016-12-08T05:58:46.694Z,34.46
2016-12-08T05:59:27.234Z,34.37
2016-12-08T06:00:07.771Z,34.56
2016-12-08T06:00:48.317Z,34.08
2016-12-08T06:01:28.892Z,34.29
2016-12-08T06:02:09.425Z,34.08
2016-12-08T06:02:49.970Z,34
2016-12-08T06:03:30.533Z,33.89
2016-12-08T06:04:11.055Z,33.98
2016-12-08T06:04:51.576Z,34.46
2016-12-08T06:05:32.114Z,34.27
2016-12-08T06:06:12.656Z,34.46
2016-12-08T06:06:53.178Z,34.27
2016-12-08T06:07:33.691Z,34.17
2016-12-08T06:08:14.223Z,34.27
2016-12-08T06:08:55.743Z,34.38
2016-12-08T06:09:35.343Z,34.37
2016-12-08T06:10:15.879Z,34.37
2016-12-08T06:10:56.479Z,34.17
2016-12-08T06:11:51.970Z,34.56
2016-12-08T06:12:32.636Z,34.75
2016-12-08T06:13:13.175Z,35.62
2016-12-08T06:13:53.701Z,35.25
2016-12-08T06:14:34.209Z,35.14
2016-12-08T06:15:14.750Z,35.24
2016-12-08T06:15:55.272Z,35.24
2016-12-08T06:16:35.827Z,35.81
2016-12-08T06:17:16.351Z,36.58
2016-12-08T06:17:56.912Z,37.74
2016-12-08T06:18:37.454Z,38.79
2016-12-08T06:19:18.012Z,40.07
2016-12-08T06:19:58.526Z,40.72
2016-12-08T06:20:39.056Z,41.89
2016-12-08T06:21:19.582Z,42.86
2016-12-08T06:22:00.096Z,43.63
2016-12-08T06:22:40.618Z,45.27
2016-12-08T06:23:21.138Z,45.65
2016-12-08T06:24:01.670Z,46.04
2016-12-08T06:24:42.192Z,47.19
2016-12-08T06:25:22.724Z,47.1
2016-12-08T06:26:03.242Z,48.06
2016-12-08T06:26:43.760Z,47.19
2016-12-08T06:27:24.326Z,46.91
2016-12-08T06:28:04.841Z,46.04
2016-12-08T06:28:45.378Z,45.84
2016-12-08T06:29:25.955Z,45.92
2016-12-08T06:30:06.577Z,45.75
2016-12-08T06:30:47.147Z,45.34
2016-12-08T06:31:27.660Z,45.46
2016-12-08T06:32:08.204Z,45.53
2016-12-08T06:32:48.716Z,45.17
2016-12-08T06:33:29.295Z,45.05
2016-12-08T06:34:09.895Z,45.17
2016-12-08T06:34:50.440Z,44.96
2016-12-08T06:35:31.672Z,45.25
2016-12-08T06:36:12.975Z,44.96
2016-12-08T06:36:53.506Z,44.89
2016-12-08T06:37:34.031Z,44.98
2016-12-08T06:38:14.562Z,44.67
2016-12-08T06:38:55.113Z,44.76
2016-12-08T06:39:35.636Z,44.4
2016-12-08T06:40:16.176Z,44.67
2016-12-08T06:40:56.695Z,44.48
2016-12-08T06:41:37.224Z,44.38
2016-12-08T06:42:17.774Z,44.31
2016-12-08T06:42:58.319Z,44.28
2016-12-08T06:43:38.850Z,43.8
2016-12-08T06:44:19.379Z,43.61
2016-12-08T06:44:59.910Z,43.73
2016-12-08T06:45:40.467Z,43.51
2016-12-08T06:46:21.011Z,43.23
2016-12-08T06:47:01.531Z,43.23
2016-12-08T06:47:42.074Z,43.44
2016-12-08T06:48:22.614Z,43.61
2016-12-08T06:49:03.164Z,42.93
2016-12-08T06:49:43.677Z,43.03
2016-12-08T06:50:24.272Z,42.76
2016-12-08T06:51:04.751Z,43.32
2016-12-08T06:51:45.294Z,42.96
2016-12-08T06:52:25.807Z,41.78
2016-12-08T06:53:06.380Z,41.61
2016-12-08T06:53:46.910Z,41.3
2016-12-08T06:54:27.448Z,41.3
2016-12-08T06:55:07.978Z,41.3
2016-12-08T06:55:48.510Z,41.22
2016-12-08T06:56:29.036Z,40.72
2016-12-08T06:57:09.562Z,40.53
2016-12-08T06:57:50.073Z,38.7
2016-12-08T06:58:30.613Z,39.18
2016-12-08T06:59:11.134Z,39.47
2016-12-08T06:59:51.673Z,39.56
2016-12-08T07:00:32.208Z,39.37
2016-12-08T07:01:12.749Z,39.86
2016-12-08T07:01:53.287Z,39.95
2016-12-08T07:02:33.802Z,39.28
2016-12-08T07:03:14.337Z,39.66
2016-12-08T07:03:54.863Z,39.68
2016-12-08T07:04:35.411Z,39.59
2016-12-08T07:05:15.924Z,39.56
2016-12-08T07:05:56.450Z,39.2
2016-12-08T07:06:36.995Z,39.01
2016-12-08T07:07:17.517Z,38.91
2016-12-08T07:07:58.037Z,38.7
2016-12-08T07:08:38.581Z,38.91
2016-12-08T07:09:19.123Z,39.01
2016-12-08T07:09:59.656Z,38.62
2016-12-08T07:10:40.192Z,38.53
2016-12-08T07:11:20.710Z,38.53
2016-12-08T07:12:01.236Z,38.62
2016-12-08T07:12:41.854Z,38.72
2016-12-08T07:13:22.383Z,38.72
2016-12-08T07:14:02.935Z,38.81
2016-12-08T07:14:43.453Z,38.24
2016-12-08T07:15:23.974Z,38.33
2016-12-08T07:16:04.533Z,38.33
2016-12-08T07:16:45.049Z,37.95
2016-12-08T07:17:25.558Z,38.14
2016-12-08T07:18:06.086Z,38.14
2016-12-08T07:18:46.645Z,37.76
2016-12-08T07:19:27.189Z,37.85
2016-12-08T07:20:07.728Z,37.76
2016-12-08T07:20:48.264Z,37.56
2016-12-08T07:21:28.791Z,37.56
2016-12-08T07:22:09.303Z,37.85
2016-12-08T07:22:49.843Z,37.76
2016-12-08T07:23:30.350Z,37.76
2016-12-08T07:24:10.877Z,37.95
2016-12-08T07:24:51.408Z,37.27
2016-12-08T07:25:31.958Z,37.27
2016-12-08T07:26:12.508Z,37.37
2016-12-08T07:26:53.048Z,37.27
2016-12-08T07:27:33.547Z,37.18
2016-12-08T07:28:14.067Z,37.27
2016-12-08T07:28:54.596Z,37.27
2016-12-08T07:29:35.125Z,37.37
2016-12-08T07:30:15.663Z,36.6
2016-12-08T07:30:56.184Z,36.69
2016-12-08T07:31:36.700Z,36.6
2016-12-08T07:32:17.243Z,36.51
2016-12-08T07:32:57.746Z,36.68
2016-12-08T07:33:38.268Z,36.41
2016-12-08T07:34:18.776Z,36.68
2016-12-08T07:34:59.295Z,36.51
2016-12-08T07:35:39.814Z,36.69
2016-12-08T07:36:20.342Z,36.51
2016-12-08T07:37:00.856Z,36.79
2016-12-08T07:37:41.401Z,36.41
2016-12-08T07:38:21.947Z,36.51
2016-12-08T07:39:02.498Z,36.69
2016-12-08T07:39:43.035Z,36.69
2016-12-08T07:40:23.548Z,36.89
2016-12-08T07:41:04.104Z,36.31
2016-12-08T07:41:44.659Z,36.11
2016-12-08T07:42:25.186Z,36.11
2016-12-08T07:43:05.718Z,36.31
2016-12-08T07:43:46.241Z,36.31
2016-12-08T07:44:26.780Z,36.31
2016-12-08T07:45:07.315Z,36.31
2016-12-08T07:45:47.845Z,36.31
2016-12-08T07:46:28.369Z,35.93
2016-12-08T07:47:08.919Z,36.11
2016-12-08T07:47:49.529Z,36.02
2016-12-08T07:48:30.084Z,36.02
2016-12-08T07:49:10.620Z,36.21
2016-12-08T07:49:51.172Z,36.1
2016-12-08T07:50:31.668Z,36.31
2016-12-08T07:51:12.191Z,36.31
2016-12-08T07:51:52.727Z,36.31
2016-12-08T07:52:33.235Z,36.31
2016-12-08T07:53:13.761Z,35.83
2016-12-08T07:53:54.289Z,35.93
2016-12-08T07:54:34.830Z,35.81
2016-12-08T07:55:15.388Z,35.83
2016-12-08T07:55:55.940Z,35.83
2016-12-08T07:56:36.484Z,36.02
2016-12-08T07:57:17.178Z,35.64
2016-12-08T07:57:57.864Z,35.64
2016-12-08T07:58:38.395Z,35.93
2016-12-08T07:59:18.976Z,35.44
2016-12-08T07:59:59.495Z,35.73
2016-12-08T08:00:40.046Z,35.44
2016-12-08T08:01:20.584Z,35.64
2016-12-08T08:02:01.103Z,35.52
2016-12-08T08:02:41.637Z,35.54
2016-12-08T08:03:22.149Z,35.35
2016-12-08T08:04:02.676Z,35.16
2016-12-08T08:04:43.236Z,35.16
2016-12-08T08:05:23.774Z,35.25
2016-12-08T08:06:04.295Z,35.35
2016-12-08T08:06:44.848Z,35.54
2016-12-08T08:07:25.384Z,35.52
2016-12-08T08:08:05.935Z,34.96
2016-12-08T08:08:46.471Z,35.06
2016-12-08T08:09:26.999Z,35.25
2016-12-08T08:10:07.546Z,35.16
2016-12-08T08:10:48.083Z,35.06
2016-12-08T08:11:28.626Z,34.77
2016-12-08T08:12:09.168Z,34.77
2016-12-08T08:12:49.745Z,34.58
2016-12-08T08:13:30.280Z,34.77
2016-12-08T08:14:10.808Z,34.86
2016-12-08T08:14:51.340Z,34.77
2016-12-08T08:15:31.867Z,34.86
2016-12-08T08:16:12.400Z,34.67
2016-12-08T08:16:52.921Z,34.67
2016-12-08T08:17:33.455Z,34.29
2016-12-08T08:18:13.981Z,34.58
2016-12-08T08:18:54.511Z,34.58
2016-12-08T08:19:35.037Z,34.38
2016-12-08T08:20:15.562Z,34.48
2016-12-08T08:20:56.078Z,34.48
2016-12-08T08:21:36.635Z,34
2016-12-08T08:22:17.158Z,34.19
2016-12-08T08:22:57.670Z,34.29
2016-12-08T08:23:38.180Z,34.48
2016-12-08T08:24:18.737Z,34.38
2016-12-08T08:24:59.277Z,34.29
2016-12-08T08:25:39.869Z,34.29
2016-12-08T08:26:20.398Z,34
2016-12-08T08:27:00.966Z,34.19
2016-12-08T08:27:41.504Z,34.29
2016-12-08T08:28:22.029Z,34.19
2016-12-08T08:29:02.582Z,34.29
2016-12-08T08:29:43.144Z,34
2016-12-08T08:30:23.670Z,34.09
2016-12-08T08:31:04.232Z,34
2016-12-08T08:31:44.782Z,34
2016-12-08T08:32:25.324Z,33.91
2016-12-08T08:33:05.849Z,33.91
2016-12-08T08:33:46.386Z,33.71
2016-12-08T08:34:26.897Z,33.91
2016-12-08T08:35:07.448Z,33.81
2016-12-08T08:35:47.962Z,33.91
2016-12-08T08:36:28.511Z,33.71
2016-12-08T08:37:09.036Z,33.91
2016-12-08T08:37:49.586Z,33.81
2016-12-08T08:38:30.137Z,33.81
2016-12-08T08:39:10.694Z,33.91
2016-12-08T08:40:58.635Z,33.51
2016-12-08T08:41:39.147Z,33.13
2016-12-08T08:42:19.678Z,33.23
2016-12-08T08:43:00.198Z,33.23
2016-12-08T08:43:40.717Z,33.42
2016-12-08T08:44:21.280Z,33.13